Time;durP1;ratioP1;P1;durP2;ratioP2;P2;SDS_P1;SDS_P2;PMS_P1;PMS_P2;Temp;Humidity;BMP_temperature;BMP_pressure;BME280_temperature;BME280_humidity;BME280_pressure;Samples;Min_cycle;Max_cycle;Signal;HPM_P1;HPM_P2
2021/12/05 00:22:00;;;;;;;;;;;;;;;;;;5115121;28;19978;-86
2021/12/05 00:24:27;;;;;;;;;;;;;;;;;;5114887;28;19961;-86
2021/12/05 00:26:58;;;;;;;;;;;;;;;;;;5114890;28;19956;-87
2021/12/05 00:29:30;;;;;;;;;;;;;;;;;;5114661;28;20018;-87
2021/12/05 00:32:10;;;;;;;;;;;;;;;;;;5114861;28;19960;-86
2021/12/05 00:45:58;;;;;;;;;;;;;;;;;;5114533;28;20012;-85
2021/12/05 00:48:49;;;;;;;;;;;;;;;;;;5114719;28;19964;-86
2021/12/05 00:59:39;;;;;;;;;;;;;;;;;;5101968;28;19958;-86
2021/12/05 01:02:29;;;;;;;;;;;;;;;;;;5113805;28;19971;-87
2021/12/05 01:05:21;;;;;;;;;;;;;;;;;;5114135;28;20003;-86
2021/12/05 01:08:07;;;;;;;;;;;;;;;;;;5114178;28;19958;-86
2021/12/05 01:10:53;;;;;;;;;;;;;;;;;;5114289;28;19966;-86
2021/12/05 01:13:35;;;;;;;;;;;;;;;;;;5113945;28;19952;-85
2021/12/05 01:16:02;;;;;;;;;;;;;;;;;;5113904;28;20065;-86
2021/12/05 01:18:29;;;;;;;;;;;;;;;;;;5114042;28;19997;-85
2021/12/05 01:20:57;;;;;;;;;;;;;;;;;;5113846;28;20049;-85
2021/12/05 01:23:30;;;;;;;;;;;;;;;;;;5113809;28;19951;-85
2021/12/05 01:26:02;;;;;;;;;;;;;;;;;;5114097;28;20008;-85
2021/12/05 01:28:40;;;;;;;;;;;;;;;;;;5113912;28;20401;-85
2021/12/05 01:31:15;;;;;;;;;;;;;;;;;;5114131;28;19955;-86
2021/12/05 01:33:46;;;;;;;;;;;;;;;;;;5113955;28;20051;-87
2021/12/05 01:36:19;;;;;;;;;;;;;;;;;;5113727;28;20054;-85
2021/12/05 01:39:01;;;;;;;;;;;;;;;;;;5113937;28;19953;-86
2021/12/05 01:50:39;;;;;;;;;;;;;;;;;;5092943;28;19958;-85
2021/12/05 01:53:23;;;;;;;;;;;;;;;;;;5113780;28;19960;-86
2021/12/05 02:09:58;;;;;;;;;;;;;;;;;;5113610;28;20063;-86
2021/12/05 02:15:38;;;;;;;;;;;;;;;;;;5116200;28;19977;-86
2021/12/05 02:29:43;;;;;;;;;;;;;;;;;;5117277;28;19948;-85
2021/12/05 02:32:35;;;;;;;;;;;;;;;;;;5116697;28;19962;-85
2021/12/05 02:35:16;;;;;;;;;;;;;;;;;;5116916;28;20310;-85
2021/12/05 02:41:03;;;;;;;;;;;;;;;;;;5152512;27;20292;-86
2021/12/05 02:43:33;;;;;;;;;;;;;;;;;;5152685;27;20311;-85
2021/12/05 02:46:02;;;;;;;;;;;;;;;;;;5152622;27;20010;-85
2021/12/05 02:48:31;;;;;;;;;;;;;;;;;;5152468;27;20009;-86
2021/12/05 02:50:58;;;;;;;;;;;;;;;;;;5152496;27;19952;-86
2021/12/05 02:53:36;;;;;;;;;;;;;;;;;;5152353;27;20421;-85
2021/12/05 02:56:03;;;;;;;;;;;;;;;;;;5152373;27;20425;-85
2021/12/05 02:58:38;;;;;;;;;;;;;;;;;;5152228;27;20482;-86
2021/12/05 03:01:12;;;;;;;;;;;;;;;;;;5152362;27;20050;-86
2021/12/05 03:03:39;;;;;;;;;;;;;;;;;;5152214;27;19959;-86
2021/12/05 03:06:11;;;;;;;;;;;;;;;;;;5152179;27;20327;-86
2021/12/05 03:08:38;;;;;;;;;;;;;;;;;;5152091;27;20008;-86
2021/12/05 03:11:05;;;;;;;;;;;;;;;;;;5152123;27;20026;-86
2021/12/05 03:13:32;;;;;;;;;;;;;;;;;;5152098;27;19998;-86
2021/12/05 03:15:59;;;;;;;;;;;;;;;;;;5151922;27;20004;-85
2021/12/05 03:18:25;;;;;;;;;;;;;;;;;;5152018;27;19993;-86
2021/12/05 03:20:52;;;;;;;;;;;;;;;;;;5151967;27;20000;-85
2021/12/05 03:23:19;;;;;;;;;;;;;;;;;;5151856;27;19988;-86
2021/12/05 03:25:46;;;;;;;;;;;;;;;;;;5151886;27;20037;-85
2021/12/05 03:28:13;;;;;;;;;;;;;;;;;;5151701;27;20049;-85
2021/12/05 03:30:40;;;;;;;;;;;;;;;;;;5151662;27;20009;-85
2021/12/05 03:33:07;;;;;;;;;;;;;;;;;;5151688;27;20049;-85
2021/12/05 03:35:34;;;;;;;;;;;;;;;;;;5151699;27;20026;-86
2021/12/05 03:38:01;;;;;;;;;;;;;;;;;;5151887;27;19956;-86
2021/12/05 03:40:28;;;;;;;;;;;;;;;;;;5151744;27;20078;-86
2021/12/05 03:42:55;;;;;;;;;;;;;;;;;;5151817;27;20479;-86
2021/12/05 03:45:22;;;;;;;;;;;;;;;;;;5151407;27;20059;-85
2021/12/05 03:47:49;;;;;;;;;;;;;;;;;;5151611;27;20049;-85
2021/12/05 03:50:16;;;;;;;;;;;;;;;;;;5147868;27;19999;-85
2021/12/05 03:52:43;;;;;;;;;;;;;;;;;;5137500;27;20059;-85
2021/12/05 03:55:10;;;;;;;;;;;;;;;;;;5137508;27;19993;-85
2021/12/05 03:57:37;;;;;;;;;;;;;;;;;;5137393;27;19991;-85
2021/12/05 04:00:04;;;;;;;;;;;;;;;;;;5137393;27;20062;-85
2021/12/05 04:02:31;;;;;;;;;;;;;;;;;;5137295;27;20457;-86
2021/12/05 04:04:58;;;;;;;;;;;;;;;;;;5137326;27;20061;-86
2021/12/05 04:07:25;;;;;;;;;;;;;;;;;;5137262;27;20051;-85
2021/12/05 04:09:52;;;;;;;;;;;;;;;;;;5137120;27;20077;-85
2021/12/05 04:12:19;;;;;;;;;;;;;;;;;;5136829;27;20057;-85
2021/12/05 04:14:46;;;;;;;;;;;;;;;;;;5137101;27;20009;-85
2021/12/05 04:17:13;;;;;;;;;;;;;;;;;;5137270;27;20049;-85
2021/12/05 04:19:40;;;;;;;;;;;;;;;;;;5136915;27;20077;-85
2021/12/05 04:22:07;;;;;;;;;;;;;;;;;;5136838;27;20379;-85
2021/12/05 04:24:35;;;;;;;;;;;;;;;;;;5136923;27;19992;-85
2021/12/05 04:27:02;;;;;;;;;;;;;;;;;;5136606;27;20292;-85
2021/12/05 04:29:29;;;;;;;;;;;;;;;;;;5136924;27;20036;-85
2021/12/05 04:31:56;;;;;;;;;;;;;;;;;;5136736;27;20044;-85
2021/12/05 04:34:23;;;;;;;;;;;;;;;;;;5137027;27;19999;-85
2021/12/05 04:36:55;;;;;;;;;;;;;;;;;;5136628;27;20475;-85
2021/12/05 04:39:22;;;;;;;;;;;;;;;;;;5136321;27;19976;-85
2021/12/05 04:41:49;;;;;;;;;;;;;;;;;;5136432;27;20053;-84
2021/12/05 04:44:17;;;;;;;;;;;;;;;;;;5136639;27;20006;-85
2021/12/05 04:46:44;;;;;;;;;;;;;;;;;;5136599;27;19984;-86
2021/12/05 04:49:11;;;;;;;;;;;;;;;;;;5136188;27;20057;-85
2021/12/05 04:51:38;;;;;;;;;;;;;;;;;;5136315;27;20045;-85
2021/12/05 04:54:05;;;;;;;;;;;;;;;;;;5136517;27;19960;-86
2021/12/05 04:56:33;;;;;;;;;;;;;;;;;;5136456;27;20037;-85
2021/12/05 04:59:00;;;;;;;;;;;;;;;;;;5136234;27;19951;-84
2021/12/05 05:01:27;;;;;;;;;;;;;;;;;;5136163;27;19947;-84
2021/12/05 05:03:54;;;;;;;;;;;;;;;;;;5135261;27;20071;-85
2021/12/05 05:06:21;;;;;;;;;;;;;;;;;;5136029;27;20011;-85
2021/12/05 05:08:48;;;;;;;;;;;;;;;;;;5136227;27;19984;-84
2021/12/05 05:11:15;;;;;;;;;;;;;;;;;;5136112;27;20051;-85
2021/12/05 05:13:42;;;;;;;;;;;;;;;;;;5135878;27;20014;-85
2021/12/05 05:16:12;;;;;;;;;;;;;;;;;;5135945;27;19996;-85
2021/12/05 05:18:45;;;;;;;;;;;;;;;;;;5136004;27;19942;-85
2021/12/05 05:21:17;;;;;;;;;;;;;;;;;;5135831;27;20389;-84
2021/12/05 05:26:54;;;;;;;;;;;;;;;;;;5135392;27;19940;-85
2021/12/05 05:40:26;;;;;;;;;;;;;;;;;;5135137;27;20475;-85
2021/12/05 05:46:08;;;;;;;;;;;;;;;;;;5135425;27;19948;-85
2021/12/05 05:48:40;;;;;;;;;;;;;;;;;;5135390;27;19996;-85
2021/12/05 05:51:07;;;;;;;;;;;;;;;;;;5135382;27;19949;-85
2021/12/05 05:53:34;;;;;;;;;;;;;;;;;;5135091;27;20490;-85
2021/12/05 05:56:02;;;;;;;;;;;;;;;;;;5135141;27;20048;-84
2021/12/05 05:58:39;;;;;;;;;;;;;;;;;;5134703;27;19961;-84
2021/12/05 06:01:15;;;;;;;;;;;;;;;;;;5135148;27;19973;-85
2021/12/05 06:03:41;;;;;;;;;;;;;;;;;;5134707;27;19993;-85
2021/12/05 06:06:08;;;;;;;;;;;;;;;;;;5134407;27;19983;-86
2021/12/05 06:08:35;;;;;;;;;;;;;;;;;;5134447;27;20033;-85
2021/12/05 06:11:02;;;;;;;;;;;;;;;;;;5134297;27;20037;-85
2021/12/05 06:13:30;;;;;;;;;;;;;;;;;;5134746;27;20064;-85
2021/12/05 06:15:57;;;;;;;;;;;;;;;;;;5134749;27;20408;-84
2021/12/05 06:18:24;;;;;;;;;;;;;;;;;;5134844;27;20039;-85
2021/12/05 06:20:51;;;;;;;;;;;;;;;;;;5134612;27;20464;-84
2021/12/05 06:23:18;;;;;;;;;;;;;;;;;;5134593;27;20041;-84
2021/12/05 06:25:45;;;;;;;;;;;;;;;;;;5134684;27;20036;-86
2021/12/05 06:28:13;;;;;;;;;;;;;;;;;;5134780;27;20391;-85
2021/12/05 06:30:48;;;;;;;;;;;;;;;;;;5134623;27;20393;-85
2021/12/05 06:47:03;;;;;;;;;;;;;;;;;;5108076;27;19956;-86
2021/12/05 06:49:30;;;;;;;;;;;;;;;;;;5134458;27;19956;-85
2021/12/05 06:51:57;;;;;;;;;;;;;;;;;;5134805;27;19961;-85
2021/12/05 06:54:24;;;;;;;;;;;;;;;;;;5134314;27;20043;-86
2021/12/05 06:56:51;;;;;;;;;;;;;;;;;;5134367;27;19955;-86
2021/12/05 06:59:18;;;;;;;;;;;;;;;;;;5134507;27;19964;-86
2021/12/05 07:01:45;;;;;;;;;;;;;;;;;;5134776;27;20040;-86
2021/12/05 07:04:25;;;;;;;;;;;;;;;;;;5134317;27;20470;-85
2021/12/05 07:06:52;;;;;;;;;;;;;;;;;;5135326;27;20055;-86
2021/12/05 07:09:19;;;;;;;;;;;;;;;;;;5134215;27;20011;-85
2021/12/05 07:11:49;;;;;;;;;;;;;;;;;;5134144;27;19956;-86
2021/12/05 07:14:36;;;;;;;;;;;;;;;;;;5134111;27;19951;-85
2021/12/05 07:17:07;;;;;;;;;;;;;;;;;;5134323;27;19996;-86
2021/12/05 07:19:47;;;;;;;;;;;;;;;;;;5134016;27;20004;-85
2021/12/05 07:22:19;;;;;;;;;;;;;;;;;;5134133;27;20300;-86
2021/12/05 07:24:49;;;;;;;;;;;;;;;;;;5134054;27;19958;-86
2021/12/05 07:40:55;;;;;;;;;;;;;;;;;;5137624;27;19967;-86
2021/12/05 07:43:22;;;;;;;;;;;;;;;;;;5137865;27;20333;-86
2021/12/05 07:45:54;;;;;;;;;;;;;;;;;;5137603;27;20007;-86
2021/12/05 07:48:24;;;;;;;;;;;;;;;;;;5137776;27;19964;-85
2021/12/05 07:50:57;;;;;;;;;;;;;;;;;;5137523;27;20408;-85
2021/12/05 07:53:29;;;;;;;;;;;;;;;;;;5137547;27;19962;-86
2021/12/05 07:56:03;;;;;;;;;;;;;;;;;;5138096;27;19956;-86
2021/12/05 07:58:52;;;;;;;;;;;;;;;;;;5137427;27;20428;-86
2021/12/05 08:14:21;;;;;;;;;;;;;;;;;;5137231;27;20057;-86
2021/12/05 08:15:17;;;;;;;;;;;;;;;;;;5136971;27;19940;-85
2021/12/05 08:17:50;;;;;;;;;;;;;;;;;;5137046;27;19998;-85
2021/12/05 08:20:17;;;;;;;;;;;;;;;;;;5136806;27;20019;-85
2021/12/05 08:22:44;;;;;;;;;;;;;;;;;;5137160;27;20003;-85
2021/12/05 08:25:13;;;;;;;;;;;;;;;;;;5136955;27;20060;-85
2021/12/05 08:27:41;;;;;;;;;;;;;;;;;;5136907;27;19953;-85
2021/12/05 08:30:11;;;;;;;;;;;;;;;;;;5136566;27;19969;-85
2021/12/05 08:32:53;;;;;;;;;;;;;;;;;;5136656;27;19941;-85
2021/12/05 08:35:39;;;;;;;;;;;;;;;;;;5136640;27;19947;-86
2021/12/05 08:43:58;;;;;;;;;;;;;;;;;;5109801;27;19949;-85
2021/12/05 09:20:01;;;;;;;;;;;;;;;;;;5115912;27;19952;-85
2021/12/05 09:31:28;;;;;;;;;;;;;;;;;;5072023;28;20010;-86
2021/12/05 10:01:29;;;;;;;;;;;;;;;;;;5114770;28;19955;-86
2021/12/05 10:02:23;;;;;;;;;;;;;;;;;;5114543;28;19966;-85
2021/12/05 10:08:11;;;;;;;;;;;;;;;;;;5114437;28;20458;-85
2021/12/05 10:10:47;;;;;;;;;;;;;;;;;;5114390;28;19965;-85
2021/12/05 10:13:24;;;;;;;;;;;;;;;;;;5114730;28;20043;-86
2021/12/05 10:16:00;;;;;;;;;;;;;;;;;;5114425;28;19951;-85
2021/12/05 10:27:07;;;;;;;;;;;;;;;;;;5114327;28;19964;-87
2021/12/05 10:35:20;;;;;;;;;;;;;;;;;;5114255;28;20410;-86
2021/12/05 10:37:50;;;;;;;;;;;;;;;;;;5114159;28;19961;-86
2021/12/05 10:40:19;;;;;;;;;;;;;;;;;;5113852;28;20064;-86
2021/12/05 10:42:46;;;;;;;;;;;;;;;;;;5113834;28;19999;-86
2021/12/05 10:45:13;;;;;;;;;;;;;;;;;;5114111;28;19957;-86
2021/12/05 10:47:40;;;;;;;;;;;;;;;;;;5113881;28;20052;-89
2021/12/05 10:50:07;;;;;;;;;;;;;;;;;;5113806;28;20006;-85
2021/12/05 10:52:34;;;;;;;;;;;;;;;;;;5113869;28;20382;-86
2021/12/05 10:55:01;;;;;;;;;;;;;;;;;;5114096;28;20046;-85
2021/12/05 10:57:28;;;;;;;;;;;;;;;;;;5113862;28;19977;-86
2021/12/05 10:59:55;;;;;;;;;;;;;;;;;;5113599;28;20054;-86
2021/12/05 11:02:26;;;;;;;;;;;;;;;;;;5117548;28;20045;-85
2021/12/05 11:04:54;;;;;;;;;;;;;;;;;;5118152;28;19955;-85
2021/12/05 11:07:23;;;;;;;;;;;;;;;;;;5118016;27;20013;-86
2021/12/05 11:09:50;;;;;;;;;;;;;;;;;;5117841;28;19953;-85
2021/12/05 11:12:17;;;;;;;;;;;;;;;;;;5117799;28;20042;-86
2021/12/05 11:14:44;;;;;;;;;;;;;;;;;;5117630;28;20051;-86
2021/12/05 11:17:11;;;;;;;;;;;;;;;;;;5117665;28;20038;-85
2021/12/05 11:19:37;;;;;;;;;;;;;;;;;;5117461;28;20379;-85
2021/12/05 11:22:04;;;;;;;;;;;;;;;;;;5117465;28;20007;-84
2021/12/05 11:24:31;;;;;;;;;;;;;;;;;;5117692;28;20010;-85
2021/12/05 11:26:58;;;;;;;;;;;;;;;;;;5117508;28;20392;-85
2021/12/05 11:29:25;;;;;;;;;;;;;;;;;;5117517;28;20031;-85
2021/12/05 11:31:53;;;;;;;;;;;;;;;;;;5117387;28;20045;-85
2021/12/05 11:34:20;;;;;;;;;;;;;;;;;;5117342;28;19955;-85
2021/12/05 11:36:47;;;;;;;;;;;;;;;;;;5118366;28;20433;-85
2021/12/05 11:39:14;;;;;;;;;;;;;;;;;;5117174;28;20011;-85
2021/12/05 11:41:41;;;;;;;;;;;;;;;;;;5117126;28;20061;-85
2021/12/05 11:44:08;;;;;;;;;;;;;;;;;;5117040;28;20060;-85
2021/12/05 11:46:35;;;;;;;;;;;;;;;;;;5117353;28;20050;-86
2021/12/05 11:49:03;;;;;;;;;;;;;;;;;;5117016;28;20423;-85
2021/12/05 11:51:30;;;;;;;;;;;;;;;;;;5117034;28;19954;-85
2021/12/05 11:53:57;;;;;;;;;;;;;;;;;;5117053;28;19952;-85
2021/12/05 11:56:24;;;;;;;;;;;;;;;;;;5117616;28;20474;-85
2021/12/05 11:58:51;;;;;;;;;;;;;;;;;;5116918;28;19987;-85
2021/12/05 12:01:18;;;;;;;;;;;;;;;;;;5117038;27;20077;-84
2021/12/05 12:03:45;;;;;;;;;;;;;;;;;;5116706;28;20043;-85
2021/12/05 12:06:11;;;;;;;;;;;;;;;;;;5116856;28;20025;-84
2021/12/05 12:08:38;;;;;;;;;;;;;;;;;;5116905;28;20049;-85
2021/12/05 12:11:05;;;;;;;;;;;;;;;;;;5116343;28;20046;-85
2021/12/05 12:13:34;;;;;;;;;;;;;;;;;;5116627;28;20044;-84
2021/12/05 12:16:03;;;;;;;;;;;;;;;;;;5116707;28;19954;-84
2021/12/05 12:18:32;;;;;;;;;;;;;;;;;;5116723;28;19955;-85
2021/12/05 12:21:00;;;;;;;;;;;;;;;;;;5116181;28;19973;-84
2021/12/05 12:23:27;;;;;;;;;;;;;;;;;;5116055;28;19960;-84
2021/12/05 12:25:54;;;;;;;;;;;;;;;;;;5116006;28;20039;-84
2021/12/05 12:28:21;;;;;;;;;;;;;;;;;;5126333;27;19991;-85
2021/12/05 12:30:47;;;;;;;;;;;;;;;;;;5136241;27;20374;-84
2021/12/05 12:33:14;;;;;;;;;;;;;;;;;;5136865;27;20047;-84
2021/12/05 12:35:41;;;;;;;;;;;;;;;;;;5136694;27;19993;-84
2021/12/05 12:38:08;;;;;;;;;;;;;;;;;;5136579;27;20384;-84
2021/12/05 12:40:35;;;;;;;;;;;;;;;;;;5136188;27;20057;-84
2021/12/05 12:43:02;;;;;;;;;;;;;;;;;;5136650;27;20033;-84
2021/12/05 12:45:29;;;;;;;;;;;;;;;;;;5136474;27;20018;-86
2021/12/05 12:47:56;;;;;;;;;;;;;;;;;;5136462;27;20004;-84
2021/12/05 12:50:23;;;;;;;;;;;;;;;;;;5136490;27;20019;-85
2021/12/05 12:52:50;;;;;;;;;;;;;;;;;;5136319;27;20041;-85
2021/12/05 12:55:17;;;;;;;;;;;;;;;;;;5136330;27;19997;-85
2021/12/05 12:57:44;;;;;;;;;;;;;;;;;;5136209;27;19984;-85
2021/12/05 13:00:11;;;;;;;;;;;;;;;;;;5136231;27;19945;-85
2021/12/05 13:02:55;;;;;;;;;;;;;;;;;;5136110;27;20064;-85
2021/12/05 13:05:36;;;;;;;;;;;;;;;;;;5136129;27;19956;-85
2021/12/05 13:10:48;;;;;;;;;;;;;;;;;;5136048;27;19970;-85
2021/12/05 13:13:15;;;;;;;;;;;;;;;;;;5136004;27;19994;-85
2021/12/05 13:15:42;;;;;;;;;;;;;;;;;;5135893;27;19953;-85
2021/12/05 13:18:09;;;;;;;;;;;;;;;;;;5135698;27;20378;-84
2021/12/05 13:20:36;;;;;;;;;;;;;;;;;;5135742;27;19988;-84
2021/12/05 13:23:03;;;;;;;;;;;;;;;;;;5135082;27;20044;-84
2021/12/05 13:25:30;;;;;;;;;;;;;;;;;;5135594;27;19979;-85
2021/12/05 13:27:57;;;;;;;;;;;;;;;;;;5135677;27;19996;-84
2021/12/05 13:30:24;;;;;;;;;;;;;;;;;;5135665;27;19956;-84
2021/12/05 13:32:51;;;;;;;;;;;;;;;;;;5135596;27;19997;-84
2021/12/05 13:35:18;;;;;;;;;;;;;;;;;;5135712;27;20013;-84
2021/12/05 13:37:47;;;;;;;;;;;;;;;;;;5134781;27;19990;-84
2021/12/05 13:40:14;;;;;;;;;;;;;;;;;;5135385;27;19972;-84
2021/12/05 13:42:42;;;;;;;;;;;;;;;;;;5135286;27;20007;-84
2021/12/05 13:45:09;;;;;;;;;;;;;;;;;;5135217;27;20302;-84
2021/12/05 13:47:37;;;;;;;;;;;;;;;;;;5135509;27;19953;-84
2021/12/05 13:50:04;;;;;;;;;;;;;;;;;;5135443;27;19996;-84
2021/12/05 13:52:31;;;;;;;;;;;;;;;;;;5135178;27;20005;-84
2021/12/05 13:54:58;;;;;;;;;;;;;;;;;;5135189;27;19961;-85
2021/12/05 13:57:25;;;;;;;;;;;;;;;;;;5135030;27;20041;-85
2021/12/05 13:59:52;;;;;;;;;;;;;;;;;;5135003;27;20475;-84
2021/12/05 14:02:19;;;;;;;;;;;;;;;;;;5135028;27;19974;-85
2021/12/05 14:04:46;;;;;;;;;;;;;;;;;;5134980;27;20112;-85
2021/12/05 14:07:13;;;;;;;;;;;;;;;;;;5134806;27;20076;-85
2021/12/05 14:09:40;;;;;;;;;;;;;;;;;;5134429;27;20386;-84
2021/12/05 14:12:07;;;;;;;;;;;;;;;;;;5134735;27;20064;-84
2021/12/05 14:14:35;;;;;;;;;;;;;;;;;;5134812;27;20083;-83
2021/12/05 14:17:02;;;;;;;;;;;;;;;;;;5133857;27;20059;-84
2021/12/05 14:19:29;;;;;;;;;;;;;;;;;;5134667;27;19967;-84
2021/12/05 14:21:56;;;;;;;;;;;;;;;;;;5134447;27;19963;-84
2021/12/05 14:24:23;;;;;;;;;;;;;;;;;;5134672;27;19955;-84
2021/12/05 14:26:50;;;;;;;;;;;;;;;;;;5134510;27;20055;-84
2021/12/05 14:29:17;;;;;;;;;;;;;;;;;;5134478;27;20398;-84
2021/12/05 14:31:45;;;;;;;;;;;;;;;;;;5134302;27;19952;-84
2021/12/05 14:34:12;;;;;;;;;;;;;;;;;;5134200;27;20462;-84
2021/12/05 14:36:39;;;;;;;;;;;;;;;;;;5134439;27;20043;-84
2021/12/05 14:39:06;;;;;;;;;;;;;;;;;;5134151;27;20031;-84
2021/12/05 14:41:33;;;;;;;;;;;;;;;;;;5134377;27;20056;-84
2021/12/05 14:44:00;;;;;;;;;;;;;;;;;;5134233;28;19960;-84
2021/12/05 14:46:27;;;;;;;;;;;;;;;;;;5134362;27;19956;-84
2021/12/05 14:48:56;;;;;;;;;;;;;;;;;;5134392;28;20054;-84
2021/12/05 14:51:23;;;;;;;;;;;;;;;;;;5134282;27;19957;-85
2021/12/05 14:53:50;;;;;;;;;;;;;;;;;;5134206;27;20039;-86
2021/12/05 14:56:17;;;;;;;;;;;;;;;;;;5134626;28;20040;-85
2021/12/05 14:58:45;;;;;;;;;;;;;;;;;;5134186;28;19993;-84
2021/12/05 15:01:12;;;;;;;;;;;;;;;;;;5133189;27;19957;-85
2021/12/05 15:03:39;;;;;;;;;;;;;;;;;;5134314;27;20046;-84
2021/12/05 15:06:07;;;;;;;;;;;;;;;;;;5133982;27;19957;-84
2021/12/05 15:08:35;;;;;;;;;;;;;;;;;;5134416;28;19960;-84
2021/12/05 15:11:02;;;;;;;;;;;;;;;;;;5134051;28;20400;-84
2021/12/05 15:13:29;;;;;;;;;;;;;;;;;;5134211;28;20046;-85
2021/12/05 15:15:56;;;;;;;;;;;;;;;;;;5134174;28;19996;-84
2021/12/05 15:18:24;;;;;;;;;;;;;;;;;;5134138;27;20412;-85
2021/12/05 15:20:51;;;;;;;;;;;;;;;;;;5133898;28;20405;-84
2021/12/05 15:23:18;;;;;;;;;;;;;;;;;;5132906;28;20046;-84
2021/12/05 15:25:45;;;;;;;;;;;;;;;;;;5132625;27;20049;-84
2021/12/05 15:28:12;;;;;;;;;;;;;;;;;;5133209;27;20028;-85
2021/12/05 15:30:39;;;;;;;;;;;;;;;;;;5130735;28;20075;-85
2021/12/05 15:33:06;;;;;;;;;;;;;;;;;;5133275;28;20031;-85
2021/12/05 15:35:33;;;;;;;;;;;;;;;;;;5133353;27;20041;-84
2021/12/05 15:38:00;;;;;;;;;;;;;;;;;;5130883;27;20397;-85
2021/12/05 15:40:27;;;;;;;;;;;;;;;;;;5133469;27;20055;-85
2021/12/05 15:42:55;;;;;;;;;;;;;;;;;;5133298;27;19970;-85
2021/12/05 15:45:22;;;;;;;;;;;;;;;;;;5131250;28;19970;-85
2021/12/05 15:47:49;;;;;;;;;;;;;;;;;;5135830;27;19952;-85
2021/12/05 15:50:16;;;;;;;;;;;;;;;;;;5137047;27;20003;-84
2021/12/05 15:52:43;;;;;;;;;;;;;;;;;;5136453;27;20038;-85
2021/12/05 15:55:10;;;;;;;;;;;;;;;;;;5133743;27;20361;-85
2021/12/05 15:57:38;;;;;;;;;;;;;;;;;;5136997;27;19949;-85
2021/12/05 16:00:05;;;;;;;;;;;;;;;;;;5135120;27;19955;-86
2021/12/05 16:02:32;;;;;;;;;;;;;;;;;;5136458;27;20330;-86
2021/12/05 16:04:59;;;;;;;;;;;;;;;;;;5136598;27;19987;-86
2021/12/05 16:07:26;;;;;;;;;;;;;;;;;;5136526;27;19988;-86
2021/12/05 16:09:53;;;;;;;;;;;;;;;;;;5136962;27;20455;-85
2021/12/05 16:12:20;;;;;;;;;;;;;;;;;;5136397;27;19954;-85
2021/12/05 16:14:48;;;;;;;;;;;;;;;;;;5136536;27;20043;-85
2021/12/05 16:17:15;;;;;;;;;;;;;;;;;;5136185;27;19993;-85
2021/12/05 16:19:42;;;;;;;;;;;;;;;;;;5136834;27;20047;-85
2021/12/05 16:22:09;;;;;;;;;;;;;;;;;;5136786;27;20393;-84
2021/12/05 16:24:40;;;;;;;;;;;;;;;;;;5135773;27;20026;-85
2021/12/05 16:27:07;;;;;;;;;;;;;;;;;;5135265;27;20400;-85
2021/12/05 16:29:34;;;;;;;;;;;;;;;;;;5136332;27;20045;-85
2021/12/05 16:32:01;;;;;;;;;;;;;;;;;;5135709;27;19978;-85
2021/12/05 16:34:28;;;;;;;;;;;;;;;;;;5136702;27;19959;-85
2021/12/05 16:36:56;;;;;;;;;;;;;;;;;;5135345;27;19989;-85
2021/12/05 16:39:23;;;;;;;;;;;;;;;;;;5136117;27;20014;-85
2021/12/05 16:41:50;;;;;;;;;;;;;;;;;;5136405;27;20438;-85
2021/12/05 16:44:19;;;;;;;;;;;;;;;;;;5136154;27;20053;-85
2021/12/05 16:46:46;;;;;;;;;;;;;;;;;;5135650;27;20047;-85
2021/12/05 16:49:13;;;;;;;;;;;;;;;;;;5135848;27;20127;-85
2021/12/05 16:51:40;;;;;;;;;;;;;;;;;;5136239;27;20005;-86
2021/12/05 16:54:07;;;;;;;;;;;;;;;;;;5134637;27;19995;-86
2021/12/05 16:56:34;;;;;;;;;;;;;;;;;;5136042;27;19991;-86
2021/12/05 16:59:01;;;;;;;;;;;;;;;;;;5136395;27;19948;-86
2021/12/05 17:01:28;;;;;;;;;;;;;;;;;;5136166;27;20052;-85
2021/12/05 17:03:55;;;;;;;;;;;;;;;;;;5135679;27;19973;-83
2021/12/05 17:06:22;;;;;;;;;;;;;;;;;;5135969;27;20007;-84
2021/12/05 17:08:49;;;;;;;;;;;;;;;;;;5136020;27;19985;-83
2021/12/05 17:11:17;;;;;;;;;;;;;;;;;;5135790;27;20040;-84
2021/12/05 17:13:44;;;;;;;;;;;;;;;;;;5135568;27;20399;-84
2021/12/05 17:16:13;;;;;;;;;;;;;;;;;;5135999;27;19998;-83
2021/12/05 17:18:43;;;;;;;;;;;;;;;;;;5135905;27;19996;-84
2021/12/05 17:21:12;;;;;;;;;;;;;;;;;;5135352;27;19950;-85
2021/12/05 17:23:39;;;;;;;;;;;;;;;;;;5135448;27;20156;-84
2021/12/05 17:26:06;;;;;;;;;;;;;;;;;;5135444;27;20035;-85
2021/12/05 17:28:36;;;;;;;;;;;;;;;;;;5134626;27;20043;-84
2021/12/05 17:31:03;;;;;;;;;;;;;;;;;;5135285;27;20278;-84
2021/12/05 17:33:30;;;;;;;;;;;;;;;;;;5135383;27;20030;-84
2021/12/05 17:35:57;;;;;;;;;;;;;;;;;;5135688;27;20002;-84
2021/12/05 17:38:24;;;;;;;;;;;;;;;;;;5135196;27;20052;-84
2021/12/05 17:40:51;;;;;;;;;;;;;;;;;;5135246;27;20587;-85
2021/12/05 17:43:18;;;;;;;;;;;;;;;;;;5134516;27;20075;-84
2021/12/05 17:45:45;;;;;;;;;;;;;;;;;;5134968;27;19990;-84
2021/12/05 17:48:12;;;;;;;;;;;;;;;;;;5135114;27;20051;-84
2021/12/05 17:50:41;;;;;;;;;;;;;;;;;;5134949;27;20062;-83
2021/12/05 17:53:08;;;;;;;;;;;;;;;;;;5134955;27;19960;-84
2021/12/05 17:55:42;;;;;;;;;;;;;;;;;;5134982;27;20001;-84
2021/12/05 17:58:20;;;;;;;;;;;;;;;;;;5134815;27;20022;-84
2021/12/05 18:00:58;;;;;;;;;;;;;;;;;;5135023;27;19980;-84
2021/12/05 18:03:24;;;;;;;;;;;;;;;;;;5134510;27;19963;-84
2021/12/05 18:05:51;;;;;;;;;;;;;;;;;;5134763;27;19959;-84
2021/12/05 18:08:19;;;;;;;;;;;;;;;;;;5134710;27;20390;-83
2021/12/05 18:10:47;;;;;;;;;;;;;;;;;;5134484;27;19960;-84
2021/12/05 18:13:14;;;;;;;;;;;;;;;;;;5134754;27;19960;-84
2021/12/05 18:15:46;;;;;;;;;;;;;;;;;;5134550;27;20005;-84
2021/12/05 18:18:14;;;;;;;;;;;;;;;;;;5134976;27;19962;-84
2021/12/05 18:20:41;;;;;;;;;;;;;;;;;;5134640;27;19960;-84
2021/12/05 18:23:08;;;;;;;;;;;;;;;;;;5134283;27;20027;-84
2021/12/05 18:25:35;;;;;;;;;;;;;;;;;;5134596;27;20043;-84
2021/12/05 18:28:02;;;;;;;;;;;;;;;;;;5134627;27;20056;-84
2021/12/05 18:30:29;;;;;;;;;;;;;;;;;;5134532;27;20060;-84
2021/12/05 18:32:57;;;;;;;;;;;;;;;;;;5134682;27;20056;-84
2021/12/05 18:35:28;;;;;;;;;;;;;;;;;;5134525;27;19956;-84
2021/12/05 18:37:56;;;;;;;;;;;;;;;;;;5134583;27;19981;-84
2021/12/05 18:40:23;;;;;;;;;;;;;;;;;;5134248;27;19974;-84
2021/12/05 18:42:51;;;;;;;;;;;;;;;;;;5134373;27;19967;-84
2021/12/05 18:45:20;;;;;;;;;;;;;;;;;;5134245;27;20379;-85
2021/12/05 18:47:47;;;;;;;;;;;;;;;;;;5133647;27;19965;-84
2021/12/05 18:50:14;;;;;;;;;;;;;;;;;;5133819;27;20432;-84
2021/12/05 18:52:41;;;;;;;;;;;;;;;;;;5134167;27;20060;-84
2021/12/05 18:55:08;;;;;;;;;;;;;;;;;;5134162;27;20048;-84
2021/12/05 18:57:35;;;;;;;;;;;;;;;;;;5134224;27;20393;-83
2021/12/05 19:00:09;;;;;;;;;;;;;;;;;;5133187;27;19975;-84
2021/12/05 19:05:47;;;;;;;;;;;;;;;;;;5070320;28;19947;-84
2021/12/05 19:08:34;;;;;;;;;;;;;;;;;;5070573;28;19957;-84
2021/12/05 19:13:45;;;;;;;;;;;;;;;;;;5134171;27;20082;-84
2021/12/05 19:16:12;;;;;;;;;;;;;;;;;;5133943;27;20045;-84
2021/12/05 19:18:39;;;;;;;;;;;;;;;;;;5134337;27;20041;-84
2021/12/05 19:21:06;;;;;;;;;;;;;;;;;;5134014;27;20040;-84
2021/12/05 19:23:35;;;;;;;;;;;;;;;;;;5137480;27;20010;-84
2021/12/05 19:26:02;;;;;;;;;;;;;;;;;;5137916;27;20314;-83
2021/12/05 19:28:29;;;;;;;;;;;;;;;;;;5138029;27;20055;-83
2021/12/05 19:30:56;;;;;;;;;;;;;;;;;;5137805;27;20061;-84
2021/12/05 19:33:24;;;;;;;;;;;;;;;;;;5137926;27;20480;-83
2021/12/05 19:35:51;;;;;;;;;;;;;;;;;;5137723;27;19947;-83
2021/12/05 19:38:23;;;;;;;;;;;;;;;;;;5137786;27;20040;-83
2021/12/05 19:40:50;;;;;;;;;;;;;;;;;;5137963;27;20420;-83
2021/12/05 19:43:17;;;;;;;;;;;;;;;;;;5137533;27;20070;-83
2021/12/05 19:45:44;;;;;;;;;;;;;;;;;;5137830;27;19982;-83
2021/12/05 19:48:11;;;;;;;;;;;;;;;;;;5137575;27;20039;-83
2021/12/05 19:50:38;;;;;;;;;;;;;;;;;;5137772;27;20043;-83
2021/12/05 19:53:05;;;;;;;;;;;;;;;;;;5137658;27;20087;-84
2021/12/05 19:55:32;;;;;;;;;;;;;;;;;;5137497;27;20050;-83
2021/12/05 19:58:00;;;;;;;;;;;;;;;;;;5137287;27;20046;-83
2021/12/05 20:00:27;;;;;;;;;;;;;;;;;;5137483;27;20072;-83
2021/12/05 20:02:54;;;;;;;;;;;;;;;;;;5137464;27;20055;-83
2021/12/05 20:05:21;;;;;;;;;;;;;;;;;;5137472;27;19963;-83
2021/12/05 20:07:48;;;;;;;;;;;;;;;;;;5137073;27;20068;-83
2021/12/05 20:10:15;;;;;;;;;;;;;;;;;;5137198;27;20059;-83
2021/12/05 20:12:42;;;;;;;;;;;;;;;;;;5137230;27;19992;-84
2021/12/05 20:15:09;;;;;;;;;;;;;;;;;;5137038;27;19992;-83
2021/12/05 20:17:36;;;;;;;;;;;;;;;;;;5137033;27;20048;-84
2021/12/05 20:20:03;;;;;;;;;;;;;;;;;;5137165;27;19960;-83
2021/12/05 20:22:32;;;;;;;;;;;;;;;;;;5136930;27;19989;-83
2021/12/05 20:24:59;;;;;;;;;;;;;;;;;;5136835;27;19952;-84
2021/12/05 20:27:26;;;;;;;;;;;;;;;;;;5136971;27;20034;-83
2021/12/05 20:29:53;;;;;;;;;;;;;;;;;;5136971;27;20036;-84
2021/12/05 20:32:20;;;;;;;;;;;;;;;;;;5136618;27;20042;-84
2021/12/05 20:34:47;;;;;;;;;;;;;;;;;;5137154;27;20054;-84
2021/12/05 20:37:14;;;;;;;;;;;;;;;;;;5136598;27;20051;-83
2021/12/05 20:39:41;;;;;;;;;;;;;;;;;;5136391;27;20048;-83
2021/12/05 20:42:08;;;;;;;;;;;;;;;;;;5136549;27;20478;-84
2021/12/05 20:44:36;;;;;;;;;;;;;;;;;;5136625;27;20071;-84
2021/12/05 20:47:03;;;;;;;;;;;;;;;;;;5136416;27;19959;-84
2021/12/05 20:49:30;;;;;;;;;;;;;;;;;;5136544;27;20041;-83
2021/12/05 20:51:57;;;;;;;;;;;;;;;;;;5136509;27;20059;-84
2021/12/05 20:54:25;;;;;;;;;;;;;;;;;;5136494;27;20033;-84